Nova Rosalandia, Brazil
Current Conditions -  °F | °C
As of 7:00 PM on Saturday 25 Oct 2014 (Local Time) from SBPJ Reporting Station
Broken Clouds Broken Clouds  
Wind Chill: 82°   Ceiling: 10000
Heat Index: 85°   Visibility: 6mi
Dew Point: 68°   Wind: 7mph
Humidity: 62%   Direction: 330°NNW
Pressure: 29.77"   Gusts: NA
Location:  10.57°S, 48.91°W
Report Text: SBPJ 252200Z 33006KT 9999 FEW025 BKN100 28/20 Q1008
Loading
Personal Weather Stations






























Interactive Weather Map
Tropical Storm Tracking
New forecast layout! Learn more

10-Day Weather Forecast

Advertisements
Track Severe Weather on mobile